createdAt,value
2019-02-12T00:00:48.074Z,3.03
2019-02-12T00:03:17.090Z,3.01
2019-02-12T00:05:44.946Z,3.02
2019-02-12T00:08:12.559Z,3.04
2019-02-12T00:10:39.971Z,3.06
2019-02-12T00:13:07.537Z,3.00
2019-02-12T00:15:34.707Z,3.01
2019-02-12T00:18:02.046Z,2.93
2019-02-12T00:20:29.239Z,2.94
2019-02-12T00:22:56.183Z,2.88
2019-02-12T00:25:24.112Z,2.90
2019-02-12T00:27:51.493Z,2.89
2019-02-12T00:30:18.741Z,2.86
2019-02-12T00:32:45.985Z,2.85
2019-02-12T00:35:14.076Z,2.78
2019-02-12T00:37:41.516Z,2.74
2019-02-12T00:40:09.117Z,2.74
2019-02-12T00:42:36.368Z,2.68
2019-02-12T00:45:04.051Z,2.69
2019-02-12T00:47:33.048Z,2.76
2019-02-12T00:49:59.730Z,2.77
2019-02-12T00:52:26.874Z,2.73
2019-02-12T00:54:54.692Z,2.73
2019-02-12T00:57:24.199Z,2.72
2019-02-12T00:59:52.165Z,2.72
2019-02-12T01:02:19.504Z,2.76
2019-02-12T01:04:47.227Z,2.73
2019-02-12T01:07:13.905Z,2.76
2019-02-12T01:09:40.874Z,2.76
2019-02-12T01:12:07.561Z,2.78
2019-02-12T01:14:34.236Z,2.74
2019-02-12T01:17:01.524Z,2.76
2019-02-12T01:19:28.294Z,2.73
2019-02-12T01:21:55.507Z,2.77
2019-02-12T01:24:22.554Z,2.89
2019-02-12T01:26:50.386Z,2.92
2019-02-12T01:29:17.170Z,2.95
2019-02-12T01:31:44.639Z,2.93
2019-02-12T01:34:12.490Z,2.98
2019-02-12T01:36:39.727Z,3.02
2019-02-12T01:39:10.686Z,3.03
2019-02-12T01:41:37.382Z,3.09
2019-02-12T01:44:04.790Z,3.10
2019-02-12T01:46:31.839Z,3.16
2019-02-12T01:48:58.998Z,3.17
2019-02-12T01:51:25.668Z,3.16
2019-02-12T01:53:53.696Z,3.28
2019-02-12T01:56:20.940Z,3.19
2019-02-12T01:58:47.625Z,3.23
2019-02-12T02:01:15.155Z,3.34
2019-02-12T02:03:42.939Z,3.30
2019-02-12T02:06:30.437Z,3.35
2019-02-12T02:09:38.967Z,3.41
2019-02-12T02:12:21.846Z,3.43
2019-02-12T02:14:48.898Z,3.44
2019-02-12T02:17:15.919Z,3.45
2019-02-12T02:19:43.129Z,3.50
2019-02-12T02:22:10.046Z,3.47
2019-02-12T02:24:36.842Z,3.46
2019-02-12T02:27:03.611Z,3.48
2019-02-12T02:29:31.212Z,3.52
2019-02-12T02:31:57.885Z,3.49
2019-02-12T02:34:25.605Z,3.42
2019-02-12T02:36:52.729Z,3.47
2019-02-12T02:39:19.907Z,3.47
2019-02-12T02:41:46.605Z,3.42
2019-02-12T02:44:14.298Z,3.44
2019-02-12T02:46:41.416Z,3.38
2019-02-12T02:49:08.623Z,3.36
2019-02-12T02:51:35.859Z,3.31
2019-02-12T02:54:03.398Z,3.33
2019-02-12T02:56:30.094Z,3.33
2019-02-12T02:58:57.181Z,3.29
2019-02-12T03:01:24.363Z,3.33
2019-02-12T03:03:51.263Z,3.39
2019-02-12T03:06:19.354Z,3.92
2019-02-12T03:08:46.058Z,4.14
2019-02-12T03:11:13.565Z,4.01
2019-02-12T03:13:40.892Z,4.47
2019-02-12T03:16:07.591Z,3.87
2019-02-12T03:18:34.717Z,3.55
2019-02-12T03:21:02.606Z,3.38
2019-02-12T03:23:29.714Z,3.40
2019-02-12T03:25:58.303Z,3.29
2019-02-12T03:28:25.861Z,3.36
2019-02-12T03:30:52.832Z,3.36
2019-02-12T03:33:20.295Z,3.28
2019-02-12T03:35:48.170Z,3.28
2019-02-12T03:38:15.114Z,3.31
2019-02-12T03:40:43.069Z,3.36
2019-02-12T03:43:11.002Z,3.31
2019-02-12T03:45:38.064Z,3.30
2019-02-12T03:48:06.355Z,3.37
2019-02-12T03:50:34.525Z,3.36
2019-02-12T03:53:01.975Z,3.30
2019-02-12T03:55:29.026Z,3.32
2019-02-12T03:57:56.326Z,3.26
2019-02-12T04:00:23.695Z,3.33
2019-02-12T04:03:01.286Z,3.28
2019-02-12T04:05:29.090Z,3.24
2019-02-12T04:07:56.369Z,3.28
2019-02-12T04:10:24.094Z,3.28
2019-02-12T04:12:51.479Z,3.27
2019-02-12T04:15:19.219Z,3.23
2019-02-12T04:17:46.378Z,3.18
2019-02-12T04:20:13.396Z,3.21
2019-02-12T04:22:40.728Z,3.10
2019-02-12T04:25:08.332Z,3.08
2019-02-12T04:27:35.650Z,3.10
2019-02-12T04:30:03.213Z,3.16
2019-02-12T04:32:30.406Z,3.22
2019-02-12T04:34:57.840Z,3.12
2019-02-12T04:37:24.564Z,3.08
2019-02-12T04:39:52.155Z,3.03
2019-02-12T04:42:18.831Z,3.01
2019-02-12T04:44:45.579Z,3.03
2019-02-12T04:47:12.652Z,2.97
2019-02-12T04:49:39.823Z,3.01
2019-02-12T04:52:08.195Z,3.05
2019-02-12T04:54:36.092Z,2.97
2019-02-12T04:57:03.651Z,2.87
2019-02-12T04:59:30.984Z,2.95
2019-02-12T05:01:58.480Z,2.93
2019-02-12T05:04:25.727Z,2.92
2019-02-12T05:06:52.685Z,2.90
2019-02-12T05:09:21.089Z,3.02
2019-02-12T05:11:51.624Z,2.98
2019-02-12T05:14:18.288Z,3.01
2019-02-12T05:16:45.279Z,2.99
2019-02-12T05:19:13.014Z,2.94
2019-02-12T05:21:40.993Z,2.93
2019-02-12T05:24:08.971Z,2.99
2019-02-12T05:26:36.621Z,3.04
2019-02-12T05:29:04.084Z,3.08
2019-02-12T05:31:31.645Z,3.09
2019-02-12T05:33:59.195Z,3.08
2019-02-12T05:36:25.907Z,3.11
2019-02-12T05:38:54.187Z,3.01
2019-02-12T05:41:21.884Z,3.13
2019-02-12T05:43:49.134Z,3.24
2019-02-12T05:46:16.180Z,3.23
2019-02-12T05:48:43.103Z,3.40
2019-02-12T05:51:10.072Z,3.33
2019-02-12T05:53:37.836Z,3.39
2019-02-12T05:56:04.978Z,3.29
2019-02-12T05:58:32.441Z,3.40
2019-02-12T06:00:59.786Z,3.42
2019-02-12T06:03:27.549Z,3.35
2019-02-12T06:05:54.554Z,3.40
2019-02-12T06:08:21.487Z,3.45
2019-02-12T06:10:48.615Z,3.34
2019-02-12T06:13:15.627Z,3.42
2019-02-12T06:15:42.936Z,3.42
2019-02-12T06:18:10.544Z,3.54
2019-02-12T06:20:38.365Z,3.51
2019-02-12T06:23:05.319Z,3.47
2019-02-12T06:25:32.708Z,3.46
2019-02-12T06:28:00.477Z,3.46
2019-02-12T06:30:27.607Z,3.42
2019-02-12T06:32:54.643Z,3.41
2019-02-12T06:35:22.335Z,3.30
2019-02-12T06:37:49.303Z,3.36
2019-02-12T06:40:16.011Z,3.38
2019-02-12T06:42:43.282Z,3.33
2019-02-12T06:45:11.254Z,3.37
2019-02-12T06:47:38.571Z,3.46
2019-02-12T06:50:07.999Z,3.43
2019-02-12T06:52:35.249Z,3.48
2019-02-12T06:55:02.134Z,3.41
2019-02-12T06:57:28.958Z,3.44
2019-02-12T06:59:56.486Z,3.40
2019-02-12T07:03:02.070Z,3.43
2019-02-12T07:05:28.995Z,3.43
2019-02-12T07:09:00.579Z,3.44
2019-02-12T07:11:47.146Z,3.44
2019-02-12T07:14:45.508Z,3.34
2019-02-12T07:18:06.762Z,3.32
2019-02-12T07:21:18.377Z,3.26
2019-02-12T07:24:04.933Z,3.27
2019-02-12T07:27:12.455Z,3.27
2019-02-12T07:30:24.571Z,3.25
2019-02-12T07:33:20.739Z,3.33
2019-02-12T07:36:14.478Z,3.22
2019-02-12T07:39:15.024Z,3.09
2019-02-12T07:42:15.598Z,3.13
2019-02-12T07:45:29.481Z,3.11
2019-02-12T07:48:31.251Z,3.12
2019-02-12T07:51:18.527Z,3.14
2019-02-12T07:54:23.051Z,3.14
2019-02-12T07:57:29.546Z,3.21
2019-02-12T08:00:09.899Z,3.13
2019-02-12T08:03:20.839Z,3.19
2019-02-12T08:06:16.953Z,3.27
2019-02-12T08:09:23.554Z,3.29
2019-02-12T08:12:29.565Z,3.39
2019-02-12T08:15:29.896Z,3.43
2019-02-12T08:18:50.510Z,3.46
2019-02-12T08:21:30.091Z,3.57
2019-02-12T08:24:38.442Z,3.67
2019-02-12T08:27:56.554Z,3.64
2019-02-12T08:31:21.532Z,3.73
2019-02-12T08:34:18.909Z,3.84
2019-02-12T08:37:10.909Z,3.90
2019-02-12T08:40:19.154Z,3.95
2019-02-12T08:42:51.016Z,4.06
2019-02-12T08:45:47.838Z,4.06
2019-02-12T08:49:00.192Z,4.11
2019-02-12T08:52:02.653Z,4.20
2019-02-12T08:55:11.185Z,4.20
2019-02-12T08:57:59.725Z,4.25
2019-02-12T09:00:51.998Z,4.38
2019-02-12T09:03:42.884Z,4.41
2019-02-12T09:06:40.736Z,4.55
2019-02-12T09:09:44.506Z,4.50
2019-02-12T09:12:31.494Z,4.67
2019-02-12T09:15:22.100Z,4.70
2019-02-12T09:18:07.810Z,4.83
2019-02-12T09:21:01.131Z,4.80
2019-02-12T09:24:16.599Z,4.85
2019-02-12T09:27:09.684Z,4.88
2019-02-12T09:30:04.247Z,4.86
2019-02-12T09:33:09.198Z,4.84
2019-02-12T09:36:05.702Z,4.85
2019-02-12T09:39:32.885Z,4.95
2019-02-12T09:42:48.041Z,5.05
2019-02-12T09:45:47.058Z,5.17
2019-02-12T09:48:30.275Z,5.29
2019-02-12T09:51:38.591Z,5.36
2019-02-12T09:54:30.368Z,5.21
2019-02-12T09:57:50.940Z,5.19
2019-02-12T10:00:42.807Z,5.35
2019-02-12T10:03:46.740Z,5.61
2019-02-12T10:07:11.330Z,5.02
2019-02-12T10:10:13.546Z,4.94
2019-02-12T10:13:00.030Z,5.24
2019-02-12T10:15:49.353Z,5.18
2019-02-12T10:18:57.432Z,5.00
2019-02-12T10:21:58.450Z,5.01
2019-02-12T10:24:52.130Z,5.09
2019-02-12T10:28:00.850Z,5.14
2019-02-12T10:30:49.388Z,5.14
2019-02-12T10:33:16.939Z,5.32
2019-02-12T10:35:43.999Z,5.36
2019-02-12T10:40:40.252Z,5.70
2019-02-12T10:43:08.509Z,5.62
2019-02-12T10:45:35.525Z,5.61
2019-02-12T10:48:03.241Z,5.77
2019-02-12T10:50:29.976Z,5.81
2019-02-12T10:52:57.403Z,5.97
2019-02-12T10:55:24.418Z,5.94
2019-02-12T10:57:51.874Z,5.94
2019-02-12T11:00:19.073Z,6.07
2019-02-12T11:02:46.314Z,6.14
2019-02-12T11:05:13.519Z,6.11
2019-02-12T11:07:40.470Z,6.17
2019-02-12T11:10:07.364Z,6.26
2019-02-12T11:12:35.887Z,6.23
2019-02-12T11:15:03.816Z,6.06
2019-02-12T11:17:31.465Z,6.07
2019-02-12T11:19:58.757Z,6.20
2019-02-12T11:22:25.859Z,6.31
2019-02-12T11:24:52.767Z,6.48
2019-02-12T11:27:20.075Z,6.47
2019-02-12T11:29:46.744Z,6.43
2019-02-12T11:32:13.423Z,6.52
2019-02-12T11:34:40.914Z,6.67
2019-02-12T11:37:07.931Z,6.60
2019-02-12T11:39:34.859Z,6.45
2019-02-12T11:42:03.360Z,6.52
2019-02-12T11:44:30.286Z,6.74
2019-02-12T11:46:57.897Z,6.57
2019-02-12T11:49:25.659Z,6.70
2019-02-12T11:51:52.425Z,6.82
2019-02-12T11:54:19.353Z,6.74
2019-02-12T11:56:46.053Z,6.73
2019-02-12T11:59:12.974Z,6.78
2019-02-12T12:01:39.926Z,7.26
2019-02-12T12:04:06.927Z,7.39
2019-02-12T12:06:33.910Z,7.94
2019-02-12T12:09:00.851Z,7.48
2019-02-12T12:11:28.034Z,7.54
2019-02-12T12:13:55.361Z,7.41
2019-02-12T12:16:22.472Z,7.47
2019-02-12T12:18:49.266Z,7.48
2019-02-12T12:21:16.210Z,7.33
2019-02-12T12:23:43.789Z,7.34
2019-02-12T12:26:10.868Z,7.06
2019-02-12T12:28:38.091Z,6.93
2019-02-12T12:31:05.767Z,6.81
2019-02-12T12:33:32.920Z,6.91
2019-02-12T12:36:00.454Z,7.04
2019-02-12T12:38:27.458Z,7.21
2019-02-12T12:41:06.071Z,7.47
2019-02-12T12:43:34.735Z,7.54
2019-02-12T12:46:02.094Z,7.85
2019-02-12T12:48:30.200Z,8.25
2019-02-12T12:50:57.276Z,8.31
2019-02-12T12:53:25.375Z,7.91
2019-02-12T12:55:52.519Z,7.67
2019-02-12T12:58:20.586Z,7.67
2019-02-12T13:00:47.372Z,7.75
2019-02-12T13:03:14.269Z,7.84
2019-02-12T13:05:41.026Z,8.15
2019-02-12T13:08:08.766Z,8.02
2019-02-12T13:10:35.934Z,8.58
2019-02-12T13:13:04.808Z,8.49
2019-02-12T13:15:32.856Z,8.53
2019-02-12T13:18:02.184Z,8.19
2019-02-12T13:20:29.867Z,8.73
2019-02-12T13:22:56.539Z,8.29
2019-02-12T13:25:23.251Z,8.33
2019-02-12T13:27:50.775Z,8.88
2019-02-12T13:30:18.041Z,8.98
2019-02-12T13:32:45.726Z,9.07
2019-02-12T13:35:13.026Z,8.41
2019-02-12T13:37:40.627Z,8.43
2019-02-12T13:40:09.839Z,8.26
2019-02-12T13:42:37.048Z,8.12
2019-02-12T13:45:05.826Z,7.85
2019-02-12T13:47:33.287Z,8.35
2019-02-12T13:50:00.871Z,8.39
2019-02-12T13:52:29.017Z,8.15
2019-02-12T13:54:55.786Z,7.82
2019-02-12T13:57:23.045Z,7.75
2019-02-12T13:59:50.322Z,7.66
2019-02-12T14:02:17.533Z,7.49
2019-02-12T14:04:44.440Z,7.55
2019-02-12T14:07:11.934Z,7.41
2019-02-12T14:09:39.250Z,7.41
2019-02-12T14:12:06.958Z,7.31
2019-02-12T14:14:35.114Z,7.20
2019-02-12T14:17:02.562Z,7.19
2019-02-12T14:19:29.885Z,7.24
2019-02-12T14:21:56.538Z,7.15
2019-02-12T14:24:23.467Z,7.04
2019-02-12T14:26:50.568Z,6.96
2019-02-12T14:29:17.502Z,7.27
2019-02-12T14:31:52.580Z,7.30
2019-02-12T14:34:13.950Z,7.05
2019-02-12T14:36:40.748Z,6.98
2019-02-12T14:39:08.103Z,6.98
2019-02-12T14:41:35.711Z,6.92
2019-02-12T14:44:03.367Z,6.88
2019-02-12T14:46:30.565Z,7.05
2019-02-12T14:49:00.628Z,7.09
2019-02-12T14:51:27.782Z,7.08
2019-02-12T14:54:00.747Z,7.01
2019-02-12T14:56:33.998Z,7.14
2019-02-12T14:59:02.832Z,7.02
2019-02-12T15:01:29.960Z,7.08
2019-02-12T15:03:57.969Z,7.08
2019-02-12T15:06:25.426Z,7.07
2019-02-12T15:09:00.817Z,7.04
2019-02-12T15:11:35.125Z,7.08
2019-02-12T15:14:03.910Z,6.99
2019-02-12T15:16:31.154Z,6.99
2019-02-12T15:18:57.826Z,7.00
2019-02-12T15:21:25.397Z,6.92
2019-02-12T15:23:52.641Z,6.85
2019-02-12T15:26:19.934Z,6.74
2019-02-12T15:28:47.320Z,6.76
2019-02-12T15:31:14.147Z,6.64
2019-02-12T15:33:40.821Z,6.58
2019-02-12T15:36:08.329Z,6.60
2019-02-12T15:38:35.575Z,6.53
2019-02-12T15:41:02.250Z,6.54
2019-02-12T15:43:29.473Z,6.53
2019-02-12T15:45:57.008Z,6.47
2019-02-12T15:48:23.732Z,6.48
2019-02-12T15:50:51.011Z,6.40
2019-02-12T15:53:18.306Z,6.36
2019-02-12T15:55:51.174Z,6.43
2019-02-12T15:58:14.754Z,6.38
2019-02-12T16:00:43.368Z,6.40
2019-02-12T16:03:10.770Z,6.39
2019-02-12T16:05:37.900Z,6.40
2019-02-12T16:08:07.275Z,6.40
2019-02-12T16:10:34.735Z,6.46
2019-02-12T16:13:01.956Z,6.41
2019-02-12T16:15:28.897Z,6.39
2019-02-12T16:17:55.905Z,6.35
2019-02-12T16:20:22.582Z,6.37
2019-02-12T16:22:49.358Z,6.36
2019-02-12T16:25:16.201Z,6.31
2019-02-12T16:27:43.164Z,6.36
2019-02-12T16:30:12.222Z,6.37
2019-02-12T16:32:39.732Z,6.29
2019-02-12T16:35:08.137Z,6.37
2019-02-12T16:37:34.825Z,6.39
2019-02-12T16:40:01.625Z,6.35
2019-02-12T16:42:28.617Z,6.38
2019-02-12T16:44:55.683Z,6.39
2019-02-12T16:47:23.257Z,6.24
2019-02-12T16:49:49.914Z,6.28
2019-02-12T16:52:20.941Z,6.19
2019-02-12T16:54:45.713Z,6.25
2019-02-12T16:57:13.659Z,6.22
2019-02-12T16:59:41.325Z,6.28
2019-02-12T17:02:08.571Z,6.17
2019-02-12T17:04:38.380Z,6.18
2019-02-12T17:07:06.384Z,6.11
2019-02-12T17:09:34.447Z,6.13
2019-02-12T17:12:02.000Z,6.08
2019-02-12T17:14:30.092Z,6.07
2019-02-12T17:16:57.209Z,6.11
2019-02-12T17:19:25.011Z,5.97
2019-02-12T17:21:51.698Z,5.95
2019-02-12T17:24:19.892Z,5.97
2019-02-12T17:26:47.103Z,5.97
2019-02-12T17:29:15.001Z,5.97
2019-02-12T17:31:43.083Z,6.01
2019-02-12T17:34:10.754Z,6.03
2019-02-12T17:36:37.838Z,6.02
2019-02-12T17:39:05.373Z,6.03
2019-02-12T17:41:35.046Z,6.01
2019-02-12T17:44:02.541Z,6.00
2019-02-12T17:46:29.257Z,5.93
2019-02-12T17:48:57.030Z,5.91
2019-02-12T17:51:23.975Z,5.90
2019-02-12T17:53:51.733Z,5.91
2019-02-12T17:56:24.684Z,5.91
2019-02-12T17:58:49.713Z,5.91
2019-02-12T18:01:16.433Z,5.90
2019-02-12T18:03:43.345Z,5.90
2019-02-12T18:06:10.489Z,5.88
2019-02-12T18:08:37.702Z,5.90
2019-02-12T18:11:04.577Z,5.88
2019-02-12T18:13:31.899Z,5.89
2019-02-12T18:15:58.569Z,5.88
2019-02-12T18:18:25.291Z,5.80
2019-02-12T18:20:51.996Z,5.79
2019-02-12T18:23:19.690Z,5.79
2019-02-12T18:25:46.405Z,5.72
2019-02-12T18:28:16.929Z,5.76
2019-02-12T18:30:45.339Z,5.70
2019-02-12T18:33:13.062Z,5.70
2019-02-12T18:35:42.391Z,5.72
2019-02-12T18:38:10.577Z,5.76
2019-02-12T18:40:38.239Z,5.73
2019-02-12T18:43:06.250Z,5.78
2019-02-12T18:45:33.486Z,5.75
2019-02-12T18:48:00.926Z,5.78
2019-02-12T18:50:29.162Z,5.75
2019-02-12T18:52:56.731Z,5.75
2019-02-12T18:55:23.434Z,5.79
2019-02-12T18:57:50.615Z,5.80
2019-02-12T19:00:17.554Z,5.81
2019-02-12T19:02:45.214Z,5.83
2019-02-12T19:05:12.766Z,5.78
2019-02-12T19:07:40.339Z,5.84
2019-02-12T19:10:09.741Z,5.82
2019-02-12T19:12:37.345Z,5.79
2019-02-12T19:15:05.173Z,5.83
2019-02-12T19:17:34.025Z,5.79
2019-02-12T19:20:01.566Z,5.80
2019-02-12T19:22:29.510Z,5.78
2019-02-12T19:24:56.937Z,5.81
2019-02-12T19:27:24.223Z,5.82
2019-02-12T19:29:51.622Z,5.81
2019-02-12T19:32:18.305Z,5.81
2019-02-12T19:34:45.596Z,5.92
2019-02-12T19:37:13.850Z,5.82
2019-02-12T19:39:41.612Z,5.78
2019-02-12T19:42:08.834Z,5.73
2019-02-12T19:44:35.538Z,5.67
2019-02-12T19:47:02.868Z,5.66
2019-02-12T19:49:32.071Z,5.66
2019-02-12T19:51:59.644Z,5.66
2019-02-12T19:54:27.476Z,5.63
2019-02-12T19:56:58.370Z,5.63
2019-02-12T19:59:25.755Z,5.59
2019-02-12T20:01:53.531Z,5.63
2019-02-12T20:04:21.031Z,5.56
2019-02-12T20:06:48.737Z,5.57
2019-02-12T20:09:25.162Z,5.62
2019-02-12T20:11:52.101Z,5.64
2019-02-12T20:14:20.375Z,5.63
2019-02-12T20:16:48.494Z,5.61
2019-02-12T20:19:15.999Z,5.62
2019-02-12T20:21:42.691Z,5.64
2019-02-12T20:24:09.625Z,5.66
2019-02-12T20:26:37.137Z,5.69
2019-02-12T20:29:05.056Z,5.66
2019-02-12T20:31:32.035Z,5.70
2019-02-12T20:33:59.412Z,5.67
2019-02-12T20:36:26.682Z,5.68
2019-02-12T20:38:55.085Z,5.66
2019-02-12T20:41:22.794Z,5.67
2019-02-12T20:43:49.923Z,5.70
2019-02-12T20:46:16.849Z,5.69
2019-02-12T20:48:44.199Z,5.69
2019-02-12T20:51:11.183Z,5.67
2019-02-12T20:53:38.390Z,5.36
2019-02-12T20:56:06.128Z,5.69
2019-02-12T20:58:34.000Z,5.72
2019-02-12T21:01:02.233Z,5.77
2019-02-12T21:03:29.716Z,5.73
2019-02-12T21:05:57.226Z,5.75
2019-02-12T21:08:24.670Z,5.77
2019-02-12T21:10:51.518Z,5.77
2019-02-12T21:13:19.354Z,5.78
2019-02-12T21:15:46.490Z,5.78
2019-02-12T21:18:14.064Z,5.75
2019-02-12T21:20:42.138Z,5.78
2019-02-12T21:23:09.064Z,5.74
2019-02-12T21:25:36.766Z,5.76
2019-02-12T21:28:04.723Z,5.73
2019-02-12T21:30:32.173Z,5.77
2019-02-12T21:32:59.525Z,5.78
2019-02-12T21:35:26.708Z,5.79
2019-02-12T21:37:55.386Z,5.78
2019-02-12T21:40:23.129Z,5.87
2019-02-12T21:42:50.596Z,5.83
2019-02-12T21:45:36.245Z,5.79
2019-02-12T21:48:04.268Z,5.83
2019-02-12T21:50:31.352Z,5.88
2019-02-12T21:52:59.378Z,5.85
2019-02-12T21:55:26.649Z,5.91
2019-02-12T21:57:54.290Z,5.86
2019-02-12T22:00:22.526Z,5.86
2019-02-12T22:02:51.296Z,5.86
2019-02-12T22:05:18.817Z,5.89
2019-02-12T22:07:46.471Z,5.84
2019-02-12T22:10:15.977Z,5.90
2019-02-12T22:12:44.150Z,5.89
2019-02-12T22:15:11.494Z,5.91
2019-02-12T22:17:39.057Z,5.90
2019-02-12T22:20:07.846Z,5.93
2019-02-12T22:22:35.377Z,5.89
2019-02-12T22:25:03.504Z,5.89
2019-02-12T22:27:39.843Z,5.86
2019-02-12T22:30:00.723Z,5.89
2019-02-12T22:32:28.262Z,5.89
2019-02-12T22:34:54.960Z,5.87
2019-02-12T22:37:23.177Z,5.84
2019-02-12T22:39:51.207Z,5.82
2019-02-12T22:42:19.374Z,5.79
2019-02-12T22:44:48.429Z,5.78
2019-02-12T22:47:16.218Z,5.80
2019-02-12T22:49:44.099Z,5.81
2019-02-12T22:52:11.671Z,5.80
2019-02-12T22:54:38.627Z,5.84
2019-02-12T22:57:05.802Z,5.84
2019-02-12T22:59:33.096Z,5.83
2019-02-12T23:02:00.720Z,5.87
2019-02-12T23:04:28.913Z,5.86
2019-02-12T23:06:57.082Z,5.87
2019-02-12T23:09:23.896Z,5.84
2019-02-12T23:11:51.441Z,5.85
2019-02-12T23:14:20.341Z,5.89
2019-02-12T23:16:47.429Z,5.87
2019-02-12T23:19:14.583Z,5.87
2019-02-12T23:21:42.245Z,5.81
2019-02-12T23:24:09.878Z,5.85
2019-02-12T23:26:38.079Z,5.86
2019-02-12T23:29:05.641Z,5.86
2019-02-12T23:31:33.346Z,5.86
2019-02-12T23:34:00.863Z,5.85
2019-02-12T23:36:28.135Z,5.83
2019-02-12T23:38:55.672Z,5.84
2019-02-12T23:41:23.438Z,5.85
2019-02-12T23:43:50.381Z,5.83
2019-02-12T23:46:18.144Z,5.83
2019-02-12T23:48:44.871Z,5.82
2019-02-12T23:51:11.586Z,5.80
2019-02-12T23:53:38.499Z,5.81
2019-02-12T23:56:06.434Z,5.78
2019-02-12T23:58:34.010Z,5.82
